QTR912 CYYZ-OTHH
Flight info
| Callsign | QTR912 |
|---|---|
| Flight time | N/A |
| Altitude | 33000 |
| Route | VERDO7LORKA/06L VERDO7 LORKA Q907 MIILS/M085F330 DCT REGHI/N0490F330 DCT COQUE/N0483F370 DCT GALOF DCT ESISI DCT FJR UM731 DIVKO DCT TINOT DCT PELOS DCT QUENN DCT LURON DCT PEKOD DCT TISAL DCT TIPAC DCT RASNO M855 VUSOR/N0480F390 M855 MMA P751 DASUM Y234 FYM M872 SEMRU W727 SHM DCT PASUM L677 RAGPU N316 HLF J874 MUSRI L604 UMENA G663 TABTA L681 ORLEK |
| Aircraft | A35K/H-SDE2E3GHIJ1J3J4J5LM1ORWXY/LB1D1 |
Departure
| Time | 2026-05-08 00:44 |
|---|---|
| Airport | Toronto Pearson International Airport (CYYZ) |
Arrival
| Time | N/A |
|---|---|
| Airport | Hamad International Airport (OTHH) |
| Time | Latitude | Longitude | Altitude | Speed | Heading |
|---|---|---|---|---|---|
| 2026-05-07 23:41 | 43.68198 | -79.61923 | 567 ft | 0 kts | 303° |
| 2026-05-08 00:32 | 43.68193 | -79.61911 | 565 ft | 4 kts | 306° |
| 2026-05-08 00:32 | 43.68177 | -79.61882 | 576 ft | 4 kts | 294° |
| 2026-05-08 00:33 | 43.68170 | -79.61852 | 572 ft | 4 kts | 248° |
| 2026-05-08 00:33 | 43.68187 | -79.61833 | 572 ft | 4 kts | 194° |
| 2026-05-08 00:33 | 43.68214 | -79.61827 | 571 ft | 4 kts | 183° |
| 2026-05-08 00:33 | 43.68241 | -79.61827 | 572 ft | 3 kts | 173° |
| 2026-05-08 00:34 | 43.68245 | -79.61828 | 571 ft | 0 kts | 171° |
| 2026-05-08 00:38 | 43.68244 | -79.61828 | 571 ft | 2 kts | 171° |
| 2026-05-08 00:38 | 43.68201 | -79.61819 | 575 ft | 10 kts | 174° |
| 2026-05-08 00:38 | 43.68119 | -79.61878 | 575 ft | 17 kts | 224° |
| 2026-05-08 00:38 | 43.68028 | -79.61982 | 576 ft | 15 kts | 201° |
| 2026-05-08 00:39 | 43.67967 | -79.62062 | 574 ft | 10 kts | 267° |
| 2026-05-08 00:39 | 43.68005 | -79.62143 | 570 ft | 13 kts | 314° |
| 2026-05-08 00:39 | 43.68086 | -79.62249 | 574 ft | 17 kts | 316° |
| 2026-05-08 00:39 | 43.68172 | -79.62363 | 574 ft | 17 kts | 316° |
| 2026-05-08 00:40 | 43.68265 | -79.62476 | 575 ft | 18 kts | 321° |
| 2026-05-08 00:40 | 43.68355 | -79.62586 | 576 ft | 18 kts | 316° |
| 2026-05-08 00:40 | 43.68445 | -79.62704 | 574 ft | 18 kts | 316° |
| 2026-05-08 00:40 | 43.68538 | -79.62828 | 575 ft | 19 kts | 316° |
| 2026-05-08 00:41 | 43.68635 | -79.62952 | 573 ft | 19 kts | 317° |
| 2026-05-08 00:41 | 43.68733 | -79.63079 | 572 ft | 19 kts | 317° |
| 2026-05-08 00:41 | 43.68832 | -79.63207 | 574 ft | 20 kts | 316° |
| 2026-05-08 00:41 | 43.68929 | -79.63334 | 578 ft | 19 kts | 316° |
| 2026-05-08 00:42 | 43.69023 | -79.63456 | 577 ft | 19 kts | 316° |
| 2026-05-08 00:42 | 43.69104 | -79.63526 | 579 ft | 10 kts | 7° |
| 2026-05-08 00:42 | 43.69161 | -79.63472 | 578 ft | 10 kts | 44° |
| 2026-05-08 00:42 | 43.69228 | -79.63426 | 572 ft | 12 kts | 11° |
| 2026-05-08 00:43 | 43.69318 | -79.63418 | 575 ft | 14 kts | 355° |
| 2026-05-08 00:43 | 43.69395 | -79.63497 | 575 ft | 15 kts | 283° |
| 2026-05-08 00:43 | 43.69346 | -79.63607 | 570 ft | 8 kts | 226° |
| 2026-05-08 00:43 | 43.69335 | -79.63623 | 576 ft | 15 kts | 226° |
| 2026-05-08 00:44 | 43.69085 | -79.63986 | 578 ft | 88 kts | 226° |
| 2026-05-08 00:44 | 43.68505 | -79.64828 | 577 ft | 152 kts | 226° |
| 2026-05-08 00:44 | 43.67653 | -79.66057 | 800 ft | 186 kts | 226° |
| 2026-05-08 00:44 | 43.66771 | -79.67312 | 1789 ft | 180 kts | 227° |
| 2026-05-08 00:45 | 43.65951 | -79.68662 | 2250 ft | 189 kts | 234° |
| 2026-05-08 00:45 | 43.65122 | -79.70176 | 2498 ft | 207 kts | 234° |
| 2026-05-08 00:45 | 43.64224 | -79.71842 | 2684 ft | 227 kts | 235° |
| 2026-05-08 00:45 | 43.63241 | -79.73673 | 2975 ft | 244 kts | 235° |
| 2026-05-08 00:46 | 43.62218 | -79.75575 | 3531 ft | 249 kts | 235° |
| 2026-05-08 00:46 | 43.61178 | -79.77501 | 4137 ft | 251 kts | 235° |
| 2026-05-08 00:46 | 43.60091 | -79.79404 | 4768 ft | 254 kts | 229° |
| 2026-05-08 00:46 | 43.58693 | -79.80913 | 5384 ft | 259 kts | 210° |
| 2026-05-08 00:47 | 43.56947 | -79.81568 | 6028 ft | 266 kts | 184° |
| 2026-05-08 00:47 | 43.55133 | -79.80980 | 6616 ft | 277 kts | 153° |
| 2026-05-08 00:47 | 43.54131 | -79.79865 | 6975 ft | 285 kts | 131° |
| 2026-05-08 00:47 | 43.53138 | -79.76473 | 7761 ft | 291 kts | 100° |
| 2026-05-08 00:48 | 43.52904 | -79.74642 | 8150 ft | 294 kts | 100° |
| 2026-05-08 00:48 | 43.52519 | -79.71852 | 8754 ft | 299 kts | 103° |
| 2026-05-08 00:48 | 43.52075 | -79.69040 | 9367 ft | 303 kts | 104° |
| 2026-05-08 00:48 | 43.51591 | -79.66204 | 9976 ft | 306 kts | 105° |
| 2026-05-08 00:49 | 43.51078 | -79.63320 | 10382 ft | 317 kts | 105° |
| 2026-05-08 00:49 | 43.50561 | -79.60281 | 10621 ft | 334 kts | 101° |
| 2026-05-08 00:49 | 43.50558 | -79.57013 | 10837 ft | 351 kts | 79° |
| 2026-05-08 00:49 | 43.51145 | -79.53684 | 11098 ft | 365 kts | 74° |
| 2026-05-08 00:50 | 43.51837 | -79.50246 | 11368 ft | 380 kts | 74° |
| 2026-05-08 00:50 | 43.52546 | -79.46679 | 11629 ft | 393 kts | 74° |
| 2026-05-08 00:50 | 43.53340 | -79.43011 | 11939 ft | 404 kts | 68° |
| 2026-05-08 00:50 | 43.54504 | -79.39457 | 12420 ft | 411 kts | 63° |
| 2026-05-08 00:51 | 43.55801 | -79.35912 | 12867 ft | 417 kts | 62° |
| 2026-05-08 00:51 | 43.57116 | -79.32336 | 13462 ft | 420 kts | 62° |
| 2026-05-08 00:51 | 43.58436 | -79.28725 | 14001 ft | 424 kts | 63° |
| 2026-05-08 00:51 | 43.59762 | -79.25083 | 14570 ft | 425 kts | 62° |
| 2026-05-08 00:52 | 43.61088 | -79.21429 | 15157 ft | 427 kts | 62° |
| 2026-05-08 00:52 | 43.62421 | -79.17750 | 15754 ft | 429 kts | 62° |
| 2026-05-08 00:52 | 43.63755 | -79.14059 | 16379 ft | 431 kts | 62° |
| 2026-05-08 00:52 | 43.65094 | -79.10348 | 16995 ft | 433 kts | 62° |
| 2026-05-08 00:53 | 43.66440 | -79.06613 | 17622 ft | 435 kts | 62° |
| 2026-05-08 00:53 | 43.67792 | -79.02859 | 18185 ft | 439 kts | 62° |
| 2026-05-08 00:53 | 43.69154 | -78.99068 | 18672 ft | 442 kts | 62° |
| 2026-05-08 00:53 | 43.70522 | -78.95256 | 19208 ft | 443 kts | 62° |
| 2026-05-08 00:54 | 43.71874 | -78.91483 | 19708 ft | 445 kts | 62° |
| 2026-05-08 00:54 | 43.73251 | -78.87638 | 20182 ft | 448 kts | 62° |
| 2026-05-08 00:54 | 43.74636 | -78.83763 | 20692 ft | 451 kts | 62° |
| 2026-05-08 00:54 | 43.76028 | -78.79861 | 21187 ft | 453 kts | 62° |
| 2026-05-08 00:55 | 43.77427 | -78.75937 | 21683 ft | 456 kts | 62° |
| 2026-05-08 00:55 | 43.78820 | -78.71974 | 22177 ft | 459 kts | 63° |
| 2026-05-08 00:55 | 43.80196 | -78.67983 | 22689 ft | 462 kts | 63° |
| 2026-05-08 00:55 | 43.81665 | -78.64004 | 23037 ft | 466 kts | 60° |
| 2026-05-08 00:56 | 43.83226 | -78.60052 | 23501 ft | 469 kts | 59° |
| 2026-05-08 00:56 | 43.84821 | -78.56096 | 23868 ft | 472 kts | 59° |
| 2026-05-08 00:56 | 43.86442 | -78.52123 | 24263 ft | 474 kts | 59° |
| 2026-05-08 00:56 | 43.88077 | -78.48134 | 24591 ft | 479 kts | 59° |
| 2026-05-08 00:57 | 43.89733 | -78.44096 | 24918 ft | 483 kts | 59° |
| 2026-05-08 00:57 | 43.91397 | -78.40026 | 25243 ft | 487 kts | 59° |
| 2026-05-08 00:57 | 43.93072 | -78.35920 | 25563 ft | 491 kts | 59° |
| 2026-05-08 00:57 | 43.94757 | -78.31776 | 25890 ft | 495 kts | 59° |
| 2026-05-08 00:58 | 43.96454 | -78.27593 | 26205 ft | 499 kts | 59° |
| 2026-05-08 00:58 | 43.98164 | -78.23371 | 26525 ft | 503 kts | 59° |
| 2026-05-08 00:58 | 43.99882 | -78.19121 | 26835 ft | 507 kts | 59° |
| 2026-05-08 00:58 | 44.01609 | -78.14841 | 27213 ft | 509 kts | 59° |
| 2026-05-08 00:59 | 44.03347 | -78.10529 | 27553 ft | 513 kts | 59° |
| 2026-05-08 00:59 | 44.05097 | -78.06181 | 27835 ft | 517 kts | 59° |
| 2026-05-08 00:59 | 44.06857 | -78.01803 | 28136 ft | 520 kts | 59° |
| 2026-05-08 00:59 | 44.08626 | -77.97395 | 28398 ft | 524 kts | 59° |
| 2026-05-08 01:00 | 44.10408 | -77.92951 | 28586 ft | 529 kts | 59° |
| 2026-05-08 01:00 | 44.12206 | -77.88454 | 28791 ft | 533 kts | 59° |
| 2026-05-08 01:00 | 44.14006 | -77.83945 | 29193 ft | 533 kts | 59° |
| 2026-05-08 01:00 | 44.15806 | -77.79428 | 29570 ft | 534 kts | 59° |
| 2026-05-08 01:01 | 44.17607 | -77.74903 | 29910 ft | 535 kts | 59° |
| 2026-05-08 01:01 | 44.19410 | -77.70367 | 30197 ft | 536 kts | 59° |
| 2026-05-08 01:01 | 44.21214 | -77.65819 | 30463 ft | 537 kts | 59° |
| 2026-05-08 01:01 | 44.23023 | -77.61254 | 30749 ft | 537 kts | 59° |
| 2026-05-08 01:02 | 44.24806 | -77.56747 | 30930 ft | 539 kts | 59° |
| 2026-05-08 01:02 | 44.26645 | -77.52092 | 31112 ft | 542 kts | 59° |
| 2026-05-08 01:02 | 44.28438 | -77.47543 | 31374 ft | 542 kts | 59° |
| 2026-05-08 01:02 | 44.30253 | -77.42932 | 31640 ft | 542 kts | 59° |
| 2026-05-08 01:03 | 44.32062 | -77.38328 | 32049 ft | 539 kts | 59° |
| 2026-05-08 01:03 | 44.33861 | -77.33739 | 32314 ft | 539 kts | 59° |
| 2026-05-08 01:03 | 44.35664 | -77.29138 | 32485 ft | 541 kts | 59° |
| 2026-05-08 01:03 | 44.37470 | -77.24520 | 32669 ft | 542 kts | 59° |
| 2026-05-08 01:04 | 44.39278 | -77.19888 | 32868 ft | 543 kts | 59° |
| 2026-05-08 01:04 | 44.42922 | -77.10535 | 32897 ft | 552 kts | 59° |
| 2026-05-08 01:05 | 44.46587 | -77.01092 | 32899 ft | 552 kts | 60° |
| 2026-05-08 01:05 | 44.50234 | -76.91660 | 32893 ft | 550 kts | 60° |
| 2026-05-08 01:06 | 44.53866 | -76.82236 | 32890 ft | 550 kts | 60° |
| 2026-05-08 01:06 | 44.57493 | -76.72797 | 32890 ft | 550 kts | 60° |
| 2026-05-08 01:07 | 44.61114 | -76.63340 | 32900 ft | 551 kts | 60° |
| 2026-05-08 01:07 | 44.64723 | -76.53879 | 32883 ft | 549 kts | 60° |
| 2026-05-08 01:08 | 44.68323 | -76.44412 | 32880 ft | 549 kts | 60° |
| 2026-05-08 01:08 | 44.71915 | -76.34936 | 32876 ft | 549 kts | 60° |
| 2026-05-08 01:09 | 44.75473 | -76.25515 | 32892 ft | 549 kts | 61° |
| 2026-05-08 01:09 | 44.78486 | -76.15648 | 32867 ft | 549 kts | 69° |
| 2026-05-08 01:10 | 44.81153 | -76.05566 | 32873 ft | 550 kts | 70° |
| 2026-05-08 01:10 | 44.83763 | -75.95426 | 32868 ft | 550 kts | 70° |
| 2026-05-08 01:11 | 44.86363 | -75.85291 | 32868 ft | 550 kts | 70° |
| 2026-05-08 01:11 | 44.88963 | -75.75158 | 32854 ft | 550 kts | 70° |
| 2026-05-08 01:12 | 44.91565 | -75.64987 | 32860 ft | 551 kts | 70° |
| 2026-05-08 01:12 | 44.94158 | -75.54806 | 32856 ft | 551 kts | 70° |
| 2026-05-08 01:13 | 44.96741 | -75.44619 | 32858 ft | 551 kts | 70° |
| 2026-05-08 01:13 | 44.99318 | -75.34414 | 32857 ft | 551 kts | 70° |
| 2026-05-08 01:14 | 45.01886 | -75.24198 | 32874 ft | 553 kts | 70° |
| 2026-05-08 01:14 | 45.04449 | -75.13951 | 32856 ft | 552 kts | 71° |
| 2026-05-08 01:15 | 45.07000 | -75.03711 | 32855 ft | 552 kts | 71° |
| 2026-05-08 01:15 | 45.09541 | -74.93464 | 32853 ft | 552 kts | 71° |
| 2026-05-08 01:16 | 45.12075 | -74.83202 | 32845 ft | 553 kts | 71° |
| 2026-05-08 01:16 | 45.14634 | -74.72909 | 32861 ft | 555 kts | 70° |
| 2026-05-08 01:17 | 45.17369 | -74.62712 | 32844 ft | 553 kts | 69° |
| 2026-05-08 01:17 | 45.20136 | -74.52537 | 32843 ft | 553 kts | 69° |
| 2026-05-08 01:18 | 45.22848 | -74.42417 | 32843 ft | 553 kts | 69° |
| 2026-05-08 01:18 | 45.25575 | -74.32122 | 32843 ft | 556 kts | 70° |
| 2026-05-08 01:19 | 45.28264 | -74.21899 | 32844 ft | 557 kts | 70° |
| 2026-05-08 01:19 | 45.30961 | -74.11607 | 32843 ft | 556 kts | 70° |
| 2026-05-08 01:20 | 45.33651 | -74.01301 | 32848 ft | 556 kts | 70° |
| 2026-05-08 01:20 | 45.36332 | -73.90986 | 32847 ft | 556 kts | 70° |
| 2026-05-08 01:21 | 45.39001 | -73.80671 | 32851 ft | 556 kts | 70° |
| 2026-05-08 01:21 | 45.41661 | -73.70344 | 32853 ft | 555 kts | 70° |
| 2026-05-08 01:22 | 45.44302 | -73.60047 | 32850 ft | 553 kts | 70° |
| 2026-05-08 01:22 | 45.46930 | -73.49753 | 32838 ft | 553 kts | 70° |
| 2026-05-08 01:23 | 45.49550 | -73.39446 | 32837 ft | 555 kts | 70° |
| 2026-05-08 01:23 | 45.52174 | -73.29073 | 32841 ft | 557 kts | 70° |
| 2026-05-08 01:24 | 45.54792 | -73.18681 | 32841 ft | 557 kts | 71° |
| 2026-05-08 01:24 | 45.57400 | -73.08279 | 32842 ft | 557 kts | 71° |
| 2026-05-08 01:25 | 45.59999 | -72.97868 | 32835 ft | 557 kts | 71° |
| 2026-05-08 01:25 | 45.62595 | -72.87423 | 32846 ft | 559 kts | 71° |
| 2026-05-08 01:26 | 45.65189 | -72.76934 | 32846 ft | 560 kts | 71° |
| 2026-05-08 01:26 | 45.67772 | -72.66442 | 32840 ft | 558 kts | 71° |
| 2026-05-08 01:27 | 45.70338 | -72.55973 | 32839 ft | 558 kts | 71° |
| 2026-05-08 01:27 | 45.72891 | -72.45505 | 32825 ft | 558 kts | 72° |
| 2026-05-08 01:28 | 45.75450 | -72.34961 | 32832 ft | 562 kts | 72° |
| 2026-05-08 01:28 | 45.78006 | -72.24386 | 32826 ft | 562 kts | 72° |
| 2026-05-08 01:29 | 45.80548 | -72.13814 | 32827 ft | 560 kts | 72° |
| 2026-05-08 01:29 | 45.83075 | -72.03259 | 32824 ft | 560 kts | 72° |
| 2026-05-08 01:30 | 45.85595 | -71.92679 | 32825 ft | 562 kts | 72° |
| 2026-05-08 01:30 | 45.88116 | -71.82045 | 32823 ft | 563 kts | 72° |
| 2026-05-08 01:31 | 45.90614 | -71.71458 | 32836 ft | 564 kts | 72° |
| 2026-05-08 01:31 | 45.93116 | -71.60802 | 32817 ft | 563 kts | 73° |
| 2026-05-08 01:32 | 45.95605 | -71.50149 | 32781 ft | 562 kts | 73° |
| 2026-05-08 01:32 | 45.98094 | -71.39447 | 32812 ft | 566 kts | 73° |
| 2026-05-08 01:33 | 46.00580 | -71.28700 | 32808 ft | 567 kts | 73° |
| 2026-05-08 01:33 | 46.03057 | -71.17939 | 32827 ft | 567 kts | 73° |
| 2026-05-08 01:34 | 46.05520 | -71.07188 | 32795 ft | 565 kts | 73° |
| 2026-05-08 01:34 | 46.07971 | -70.96440 | 32794 ft | 567 kts | 74° |
| 2026-05-08 01:35 | 46.10426 | -70.85611 | 32792 ft | 570 kts | 74° |
| 2026-05-08 01:35 | 46.12876 | -70.74754 | 32793 ft | 570 kts | 74° |
| 2026-05-08 01:36 | 46.15300 | -70.63957 | 32797 ft | 569 kts | 74° |
| 2026-05-08 01:36 | 46.17725 | -70.53104 | 32785 ft | 568 kts | 74° |
| 2026-05-08 01:37 | 46.20142 | -70.42228 | 32780 ft | 573 kts | 75° |
| 2026-05-08 01:37 | 46.22567 | -70.31257 | 32777 ft | 574 kts | 75° |
| 2026-05-08 01:38 | 46.24980 | -70.20271 | 32767 ft | 574 kts | 75° |
| 2026-05-08 01:38 | 46.26952 | -70.11039 | 32781 ft | 573 kts | 75° |
| 2026-05-08 01:39 | 46.29269 | -70.00050 | 32738 ft | 571 kts | 76° |
| 2026-05-08 01:39 | 46.31575 | -69.89091 | 32757 ft | 575 kts | 76° |
| 2026-05-08 01:40 | 46.33901 | -69.78015 | 32761 ft | 576 kts | 76° |
| 2026-05-08 01:40 | 46.36224 | -69.66912 | 32756 ft | 576 kts | 76° |
| 2026-05-08 01:41 | 46.38533 | -69.55810 | 32758 ft | 575 kts | 76° |
| 2026-05-08 01:41 | 46.40829 | -69.44707 | 32766 ft | 577 kts | 76° |
| 2026-05-08 01:42 | 46.43126 | -69.33530 | 32757 ft | 579 kts | 77° |
| 2026-05-08 01:42 | 46.45416 | -69.22332 | 32755 ft | 579 kts | 77° |
| 2026-05-08 01:43 | 46.47695 | -69.11126 | 32762 ft | 579 kts | 77° |
| 2026-05-08 01:43 | 46.49963 | -68.99905 | 32765 ft | 579 kts | 77° |
| 2026-05-08 01:44 | 46.52217 | -68.88695 | 32780 ft | 578 kts | 77° |
| 2026-05-08 01:44 | 46.54457 | -68.77487 | 32775 ft | 578 kts | 77° |
| 2026-05-08 01:45 | 46.56689 | -68.66255 | 32781 ft | 578 kts | 77° |
| 2026-05-08 01:45 | 46.58910 | -68.55018 | 32786 ft | 578 kts | 77° |
| 2026-05-08 01:46 | 46.61119 | -68.43778 | 32791 ft | 579 kts | 78° |
| 2026-05-08 01:46 | 46.63322 | -68.32497 | 32765 ft | 580 kts | 78° |
| 2026-05-08 01:47 | 46.65513 | -68.21207 | 32753 ft | 580 kts | 78° |
| 2026-05-08 01:47 | 46.67693 | -68.09913 | 32745 ft | 580 kts | 78° |
| 2026-05-08 01:48 | 46.70949 | -67.92930 | 32729 ft | 581 kts | 79° |
| 2026-05-08 01:48 | 46.73109 | -67.81561 | 32745 ft | 583 kts | 79° |
| 2026-05-08 01:49 | 46.75269 | -67.70166 | 32733 ft | 583 kts | 79° |
| 2026-05-08 01:49 | 46.77414 | -67.58756 | 32740 ft | 583 kts | 79° |
| 2026-05-08 01:50 | 46.79531 | -67.47422 | 32740 ft | 583 kts | 79° |
| 2026-05-08 01:50 | 46.81666 | -67.35920 | 32733 ft | 584 kts | 79° |
| 2026-05-08 01:51 | 46.83781 | -67.24464 | 32729 ft | 584 kts | 79° |
| 2026-05-08 01:51 | 46.85870 | -67.13082 | 32729 ft | 584 kts | 79° |
| 2026-05-08 01:52 | 46.88379 | -67.01768 | 32731 ft | 589 kts | 71° |
| 2026-05-08 01:52 | 46.91611 | -66.90740 | 32675 ft | 590 kts | 69° |
| 2026-05-08 01:53 | 46.94968 | -66.79768 | 32724 ft | 591 kts | 69° |
| 2026-05-08 01:53 | 46.98325 | -66.68775 | 32725 ft | 592 kts | 70° |
| 2026-05-08 01:54 | 47.01654 | -66.57756 | 32724 ft | 591 kts | 70° |
| 2026-05-08 01:54 | 47.04962 | -66.46712 | 32718 ft | 591 kts | 70° |
| 2026-05-08 01:55 | 47.08258 | -66.35655 | 32718 ft | 592 kts | 70° |
| 2026-05-08 01:55 | 47.11552 | -66.24561 | 32714 ft | 594 kts | 71° |
| 2026-05-08 01:56 | 47.14845 | -66.13424 | 32715 ft | 595 kts | 71° |
| 2026-05-08 01:56 | 47.18127 | -66.02271 | 32744 ft | 595 kts | 71° |
| 2026-05-08 01:57 | 47.21400 | -65.91102 | 32714 ft | 594 kts | 70° |
| 2026-05-08 01:57 | 47.24662 | -65.79923 | 32704 ft | 594 kts | 71° |
| 2026-05-08 01:58 | 47.27908 | -65.68746 | 32642 ft | 594 kts | 71° |
| 2026-05-08 01:58 | 47.31146 | -65.57534 | 32707 ft | 595 kts | 71° |
| 2026-05-08 01:59 | 47.34375 | -65.46308 | 32704 ft | 594 kts | 71° |
| 2026-05-08 01:59 | 47.37590 | -65.35084 | 32698 ft | 594 kts | 72° |
| 2026-05-08 02:00 | 47.40792 | -65.23852 | 32697 ft | 594 kts | 72° |
| 2026-05-08 02:00 | 47.43984 | -65.12599 | 32702 ft | 594 kts | 72° |
| 2026-05-08 02:01 | 47.47163 | -65.01342 | 32693 ft | 595 kts | 72° |
| 2026-05-08 02:01 | 47.50345 | -64.90011 | 32689 ft | 597 kts | 72° |
| 2026-05-08 02:02 | 47.53522 | -64.78656 | 32692 ft | 597 kts | 72° |
| 2026-05-08 02:02 | 47.56690 | -64.67280 | 32687 ft | 597 kts | 72° |
| 2026-05-08 02:03 | 47.59847 | -64.55882 | 32680 ft | 598 kts | 72° |
| 2026-05-08 02:03 | 47.62996 | -64.44466 | 32613 ft | 598 kts | 73° |
| 2026-05-08 02:04 | 47.66143 | -64.32995 | 32677 ft | 602 kts | 73° |
| 2026-05-08 02:04 | 47.69291 | -64.21465 | 32680 ft | 603 kts | 73° |
| 2026-05-08 02:05 | 47.72407 | -64.10006 | 32680 ft | 602 kts | 73° |
| 2026-05-08 02:05 | 47.75533 | -63.98449 | 32680 ft | 602 kts | 73° |
| 2026-05-08 02:06 | 47.78643 | -63.86892 | 32683 ft | 602 kts | 73° |
| 2026-05-08 02:06 | 47.81743 | -63.75317 | 32681 ft | 605 kts | 74° |
| 2026-05-08 02:07 | 47.84852 | -63.63639 | 32683 ft | 607 kts | 74° |
| 2026-05-08 02:07 | 47.87950 | -63.51959 | 32699 ft | 606 kts | 74° |
| 2026-05-08 02:08 | 47.91034 | -63.40271 | 32691 ft | 606 kts | 74° |
| 2026-05-08 02:08 | 47.94107 | -63.28566 | 32703 ft | 606 kts | 75° |
| 2026-05-08 02:09 | 47.97167 | -63.16847 | 32690 ft | 606 kts | 75° |
| 2026-05-08 02:09 | 48.00212 | -63.05124 | 32689 ft | 606 kts | 75° |
| 2026-05-08 02:10 | 48.03246 | -62.93389 | 32693 ft | 606 kts | 75° |
| 2026-05-08 02:10 | 48.06267 | -62.81640 | 32688 ft | 606 kts | 75° |
| 2026-05-08 02:11 | 48.09275 | -62.69883 | 32687 ft | 606 kts | 75° |
| 2026-05-08 02:11 | 48.12275 | -62.58098 | 32694 ft | 606 kts | 75° |
| 2026-05-08 02:12 | 48.15262 | -62.46295 | 32687 ft | 609 kts | 76° |
| 2026-05-08 02:12 | 48.18266 | -62.34347 | 32687 ft | 614 kts | 76° |
| 2026-05-08 02:13 | 48.21252 | -62.22442 | 32691 ft | 614 kts | 76° |
| 2026-05-08 02:13 | 48.24244 | -62.10451 | 32681 ft | 614 kts | 76° |
| 2026-05-08 02:14 | 48.27221 | -61.98442 | 32693 ft | 614 kts | 76° |
| 2026-05-08 02:14 | 48.30182 | -61.86433 | 32619 ft | 612 kts | 76° |
| 2026-05-08 02:15 | 48.33138 | -61.74366 | 32682 ft | 620 kts | 76° |
| 2026-05-08 02:15 | 48.36103 | -61.62202 | 32683 ft | 620 kts | 76° |
| 2026-05-08 02:16 | 48.39057 | -61.50038 | 32681 ft | 619 kts | 76° |
| 2026-05-08 02:16 | 48.41998 | -61.37855 | 32683 ft | 618 kts | 76° |
| 2026-05-08 02:17 | 48.44920 | -61.25677 | 32679 ft | 618 kts | 76° |
| 2026-05-08 02:17 | 48.47825 | -61.13489 | 32683 ft | 621 kts | 76° |
| 2026-05-08 02:18 | 48.50742 | -61.01174 | 32679 ft | 624 kts | 76° |
| 2026-05-08 02:18 | 48.53649 | -60.88865 | 32685 ft | 621 kts | 76° |
| 2026-05-08 02:19 | 48.56531 | -60.76591 | 32674 ft | 620 kts | 76° |
| 2026-05-08 02:19 | 48.59396 | -60.64308 | 32677 ft | 620 kts | 77° |
| 2026-05-08 02:20 | 48.62245 | -60.52015 | 32615 ft | 620 kts | 77° |
| 2026-05-08 02:20 | 48.65091 | -60.39654 | 32672 ft | 623 kts | 76° |
| 2026-05-08 02:21 | 48.67930 | -60.27278 | 32675 ft | 622 kts | 76° |
| 2026-05-08 02:21 | 48.70753 | -60.14899 | 32676 ft | 622 kts | 77° |
| 2026-05-08 02:22 | 48.73562 | -60.02505 | 32675 ft | 622 kts | 77° |
| 2026-05-08 02:22 | 48.76354 | -59.90106 | 32666 ft | 621 kts | 76° |
| 2026-05-08 02:23 | 48.79111 | -59.77800 | 32667 ft | 623 kts | 76° |
| 2026-05-08 02:23 | 48.81884 | -59.65336 | 32669 ft | 624 kts | 76° |
| 2026-05-08 02:24 | 48.84645 | -59.52857 | 32673 ft | 624 kts | 77° |
| 2026-05-08 02:24 | 48.87386 | -59.40398 | 32664 ft | 620 kts | 76° |
| 2026-05-08 02:25 | 48.90102 | -59.27987 | 32668 ft | 619 kts | 77° |
| 2026-05-08 02:25 | 48.92799 | -59.15575 | 32591 ft | 618 kts | 77° |
| 2026-05-08 02:26 | 48.95495 | -59.03075 | 32676 ft | 626 kts | 76° |
| 2026-05-08 02:26 | 48.97736 | -58.92645 | 32665 ft | 621 kts | 76° |
| 2026-05-08 02:27 | 49.00405 | -58.80171 | 32665 ft | 619 kts | 76° |
| 2026-05-08 02:27 | 49.03054 | -58.67696 | 32668 ft | 619 kts | 77° |
| 2026-05-08 02:28 | 49.05690 | -58.55201 | 32662 ft | 619 kts | 77° |
| 2026-05-08 02:28 | 49.08314 | -58.42683 | 32649 ft | 620 kts | 77° |
| 2026-05-08 02:29 | 49.10941 | -58.30075 | 32662 ft | 624 kts | 77° |
| 2026-05-08 02:29 | 49.13558 | -58.17443 | 32669 ft | 624 kts | 77° |
| 2026-05-08 02:30 | 49.16160 | -58.04803 | 32666 ft | 624 kts | 77° |
| 2026-05-08 02:30 | 49.18741 | -57.92183 | 32670 ft | 620 kts | 77° |
| 2026-05-08 02:31 | 49.21295 | -57.79619 | 32669 ft | 619 kts | 77° |
| 2026-05-08 02:31 | 49.23836 | -57.67018 | 32674 ft | 620 kts | 77° |
| 2026-05-08 02:32 | 49.26346 | -57.54499 | 32686 ft | 620 kts | 77° |
| 2026-05-08 02:32 | 49.28856 | -57.41903 | 32687 ft | 617 kts | 77° |
| 2026-05-08 02:33 | 49.31346 | -57.29346 | 32691 ft | 616 kts | 77° |
| 2026-05-08 02:33 | 49.33817 | -57.16782 | 32694 ft | 616 kts | 77° |
| 2026-05-08 02:34 | 49.36278 | -57.04190 | 32630 ft | 616 kts | 77° |
| 2026-05-08 02:34 | 49.38723 | -56.91598 | 32692 ft | 614 kts | 77° |
| 2026-05-08 02:35 | 49.41145 | -56.79051 | 32691 ft | 613 kts | 77° |
| 2026-05-08 02:35 | 49.43549 | -56.66503 | 32689 ft | 613 kts | 77° |
| 2026-05-08 02:36 | 49.45941 | -56.53933 | 32701 ft | 613 kts | 77° |
| 2026-05-08 02:36 | 49.48316 | -56.41375 | 32705 ft | 609 kts | 77° |
| 2026-05-08 02:37 | 49.50663 | -56.28886 | 32706 ft | 607 kts | 77° |
| 2026-05-08 02:37 | 49.52995 | -56.16382 | 32713 ft | 608 kts | 77° |
| 2026-05-08 02:38 | 49.55313 | -56.03867 | 32715 ft | 608 kts | 77° |
| 2026-05-08 02:38 | 49.57617 | -55.91360 | 32719 ft | 603 kts | 77° |
| 2026-05-08 02:39 | 49.59885 | -55.78975 | 32723 ft | 600 kts | 78° |
| 2026-05-08 02:39 | 49.62137 | -55.66581 | 32721 ft | 600 kts | 78° |
| 2026-05-08 02:40 | 49.64371 | -55.54168 | 32723 ft | 603 kts | 77° |
| 2026-05-08 02:40 | 49.66601 | -55.41707 | 32721 ft | 598 kts | 78° |
| 2026-05-08 02:41 | 49.68789 | -55.29427 | 32733 ft | 591 kts | 78° |
| 2026-05-08 02:41 | 49.70949 | -55.17195 | 32731 ft | 591 kts | 78° |
| 2026-05-08 02:42 | 49.73098 | -55.04935 | 32736 ft | 591 kts | 78° |
| 2026-05-08 02:42 | 49.75236 | -54.92670 | 32740 ft | 587 kts | 79° |
| 2026-05-08 02:43 | 49.77313 | -54.80693 | 32740 ft | 579 kts | 78° |
| 2026-05-08 02:43 | 49.79383 | -54.68635 | 32750 ft | 581 kts | 78° |
| 2026-05-08 02:44 | 49.81446 | -54.56531 | 32749 ft | 582 kts | 78° |
| 2026-05-08 02:44 | 49.83500 | -54.44413 | 32763 ft | 582 kts | 78° |
| 2026-05-08 02:45 | 49.85524 | -54.32418 | 32787 ft | 569 kts | 79° |
| 2026-05-08 02:45 | 49.87497 | -54.20621 | 32787 ft | 565 kts | 79° |
| 2026-05-08 02:46 | 49.89452 | -54.08817 | 32800 ft | 566 kts | 79° |
| 2026-05-08 02:46 | 49.91403 | -53.96967 | 32806 ft | 567 kts | 79° |
| 2026-05-08 02:47 | 49.93343 | -53.85123 | 32821 ft | 563 kts | 79° |
| 2026-05-08 02:47 | 49.95249 | -53.73414 | 32824 ft | 557 kts | 80° |
| 2026-05-08 02:48 | 49.97132 | -53.61741 | 32831 ft | 557 kts | 80° |
| 2026-05-08 02:48 | 49.99002 | -53.50059 | 32846 ft | 557 kts | 80° |
| 2026-05-08 02:49 | 50.00861 | -53.38372 | 32849 ft | 557 kts | 79° |
| 2026-05-08 02:49 | 50.02712 | -53.26662 | 32873 ft | 557 kts | 79° |
| 2026-05-08 02:50 | 50.04550 | -53.14950 | 32873 ft | 557 kts | 79° |
| 2026-05-08 02:50 | 50.06375 | -53.03232 | 32873 ft | 557 kts | 79° |
| 2026-05-08 02:51 | 50.08188 | -52.91506 | 32881 ft | 557 kts | 79° |
| 2026-05-08 02:51 | 50.09989 | -52.79790 | 32887 ft | 552 kts | 80° |
| 2026-05-08 02:52 | 50.11753 | -52.68233 | 32890 ft | 547 kts | 81° |
| 2026-05-08 02:52 | 50.13495 | -52.56696 | 32903 ft | 548 kts | 80° |
| 2026-05-08 02:53 | 50.15230 | -52.45136 | 32903 ft | 548 kts | 80° |
| 2026-05-08 02:53 | 50.16957 | -52.33557 | 32911 ft | 548 kts | 80° |
| 2026-05-08 02:54 | 50.18663 | -52.22033 | 32914 ft | 549 kts | 81° |
| 2026-05-08 02:54 | 50.20372 | -52.10399 | 32917 ft | 550 kts | 81° |
| 2026-05-08 02:55 | 50.22914 | -51.92934 | 32935 ft | 550 kts | 81° |
| 2026-05-08 02:56 | 50.24594 | -51.81280 | 32935 ft | 550 kts | 81° |
| 2026-05-08 02:56 | 50.26262 | -51.69624 | 32951 ft | 548 kts | 81° |
| 2026-05-08 02:57 | 50.27912 | -51.58005 | 32952 ft | 547 kts | 81° |
| 2026-05-08 02:57 | 50.29547 | -51.46392 | 32960 ft | 547 kts | 81° |
| 2026-05-08 02:58 | 50.31171 | -51.34769 | 32966 ft | 547 kts | 81° |
| 2026-05-08 02:58 | 50.32784 | -51.23141 | 32963 ft | 547 kts | 81° |
| 2026-05-08 02:59 | 50.34380 | -51.11532 | 32986 ft | 545 kts | 80° |
| 2026-05-08 02:59 | 50.35964 | -50.99928 | 32993 ft | 545 kts | 80° |
| 2026-05-08 03:00 | 50.37535 | -50.88331 | 32996 ft | 545 kts | 81° |
| 2026-05-08 03:00 | 50.39095 | -50.76715 | 33012 ft | 545 kts | 81° |
| 2026-05-08 03:01 | 50.40643 | -50.65093 | 33021 ft | 544 kts | 81° |
| 2026-05-08 03:01 | 50.42177 | -50.53484 | 33031 ft | 544 kts | 81° |
| 2026-05-08 03:02 | 50.43699 | -50.41875 | 33036 ft | 543 kts | 81° |
| 2026-05-08 03:02 | 50.45208 | -50.30269 | 33028 ft | 542 kts | 80° |
| 2026-05-08 03:03 | 50.46703 | -50.18683 | 33069 ft | 541 kts | 80° |
| 2026-05-08 03:03 | 50.48171 | -50.07191 | 33067 ft | 541 kts | 80° |
| 2026-05-08 03:04 | 50.49640 | -49.95605 | 33069 ft | 541 kts | 80° |
| 2026-05-08 03:04 | 50.51098 | -49.84010 | 33078 ft | 541 kts | 80° |
| 2026-05-08 03:05 | 50.52544 | -49.72415 | 33099 ft | 541 kts | 80° |
| 2026-05-08 03:05 | 50.53979 | -49.60804 | 33086 ft | 541 kts | 80° |
| 2026-05-08 03:06 | 50.55399 | -49.49206 | 33106 ft | 539 kts | 81° |
| 2026-05-08 03:06 | 50.56802 | -49.37655 | 33108 ft | 538 kts | 81° |
| 2026-05-08 03:07 | 50.58192 | -49.26097 | 33111 ft | 538 kts | 81° |
| 2026-05-08 03:07 | 50.59571 | -49.14544 | 33112 ft | 537 kts | 81° |
| 2026-05-08 03:08 | 50.60939 | -49.02975 | 33119 ft | 537 kts | 81° |
| 2026-05-08 03:08 | 50.62293 | -48.91421 | 33138 ft | 536 kts | 81° |
| 2026-05-08 03:09 | 50.63632 | -48.79895 | 33138 ft | 535 kts | 81° |
| 2026-05-08 03:09 | 50.64959 | -48.68359 | 33151 ft | 535 kts | 81° |
| 2026-05-08 03:10 | 50.66276 | -48.56812 | 33148 ft | 535 kts | 81° |
| 2026-05-08 03:10 | 50.67581 | -48.45265 | 33155 ft | 535 kts | 81° |
| 2026-05-08 03:11 | 50.68872 | -48.33725 | 33166 ft | 534 kts | 81° |
| 2026-05-08 03:11 | 50.70142 | -48.22273 | 33169 ft | 534 kts | 81° |
| 2026-05-08 03:12 | 50.71409 | -48.10735 | 33170 ft | 534 kts | 81° |
| 2026-05-08 03:12 | 50.72665 | -47.99192 | 33185 ft | 533 kts | 81° |
| 2026-05-08 03:13 | 50.73907 | -47.87667 | 33184 ft | 532 kts | 81° |
| 2026-05-08 03:13 | 50.75137 | -47.76143 | 33189 ft | 532 kts | 81° |
| 2026-05-08 03:14 | 50.76355 | -47.64618 | 33195 ft | 532 kts | 81° |
| 2026-05-08 03:14 | 50.77560 | -47.53095 | 33196 ft | 532 kts | 81° |
| 2026-05-08 03:15 | 50.78757 | -47.41545 | 33200 ft | 532 kts | 82° |
| 2026-05-08 03:15 | 50.79749 | -47.31872 | 33201 ft | 531 kts | 81° |
| 2026-05-08 03:16 | 50.80910 | -47.20449 | 33199 ft | 528 kts | 81° |
| 2026-05-08 03:16 | 50.82071 | -47.08921 | 33209 ft | 527 kts | 81° |
| 2026-05-08 03:17 | 50.83204 | -46.97557 | 33209 ft | 527 kts | 81° |
| 2026-05-08 03:17 | 50.84333 | -46.86110 | 33210 ft | 527 kts | 81° |
| 2026-05-08 03:18 | 50.85451 | -46.74649 | 33220 ft | 527 kts | 81° |
| 2026-05-08 03:18 | 50.86565 | -46.63118 | 33214 ft | 526 kts | 81° |
| 2026-05-08 03:19 | 50.87652 | -46.51743 | 33216 ft | 526 kts | 82° |
| 2026-05-08 03:19 | 50.88736 | -46.40276 | 33220 ft | 527 kts | 82° |
| 2026-05-08 03:20 | 50.89808 | -46.28804 | 33217 ft | 527 kts | 82° |
| 2026-05-08 03:20 | 50.90869 | -46.17327 | 33221 ft | 527 kts | 82° |
| 2026-05-08 03:21 | 50.91921 | -46.05824 | 33224 ft | 527 kts | 82° |
| 2026-05-08 03:21 | 50.92960 | -45.94323 | 33231 ft | 527 kts | 82° |
| 2026-05-08 03:22 | 50.93989 | -45.82822 | 33234 ft | 527 kts | 82° |
| 2026-05-08 03:22 | 50.95006 | -45.71313 | 33234 ft | 527 kts | 82° |
| 2026-05-08 03:23 | 50.96012 | -45.59799 | 33232 ft | 528 kts | 83° |
| 2026-05-08 03:23 | 50.97008 | -45.48247 | 33247 ft | 528 kts | 83° |
| 2026-05-08 03:24 | 50.97993 | -45.36699 | 33239 ft | 528 kts | 83° |
| 2026-05-08 03:24 | 50.98968 | -45.25138 | 33249 ft | 528 kts | 83° |
| 2026-05-08 03:25 | 50.99930 | -45.13577 | 33250 ft | 528 kts | 83° |
| 2026-05-08 03:25 | 51.00881 | -45.02009 | 33257 ft | 528 kts | 83° |
| 2026-05-08 03:26 | 51.01821 | -44.90437 | 33251 ft | 528 kts | 83° |
| 2026-05-08 03:26 | 51.02750 | -44.78859 | 33258 ft | 529 kts | 83° |
| 2026-05-08 03:27 | 51.03667 | -44.67274 | 33256 ft | 529 kts | 83° |
| 2026-05-08 03:27 | 51.04574 | -44.55677 | 33261 ft | 529 kts | 83° |
| 2026-05-08 03:28 | 51.05468 | -44.44082 | 33265 ft | 529 kts | 83° |
| 2026-05-08 03:28 | 51.06351 | -44.32477 | 33267 ft | 529 kts | 83° |
| 2026-05-08 03:29 | 51.07223 | -44.20869 | 33269 ft | 529 kts | 83° |
| 2026-05-08 03:29 | 51.08084 | -44.09254 | 33275 ft | 529 kts | 83° |
| 2026-05-08 03:30 | 51.09354 | -43.91801 | 33288 ft | 530 kts | 83° |
| 2026-05-08 03:31 | 51.11007 | -43.68543 | 33279 ft | 531 kts | 83° |
| 2026-05-08 03:32 | 51.12219 | -43.51030 | 33286 ft | 531 kts | 83° |
| 2026-05-08 03:32 | 51.13014 | -43.39341 | 33285 ft | 531 kts | 84° |
| 2026-05-08 03:33 | 51.13795 | -43.27662 | 33292 ft | 531 kts | 83° |
| 2026-05-08 03:33 | 51.14568 | -43.15932 | 33299 ft | 533 kts | 83° |
| 2026-05-08 03:34 | 51.15332 | -43.04174 | 33298 ft | 534 kts | 83° |
| 2026-05-08 03:34 | 51.16083 | -42.92418 | 33302 ft | 533 kts | 83° |
| 2026-05-08 03:35 | 51.16822 | -42.80662 | 33303 ft | 533 kts | 84° |
| 2026-05-08 03:35 | 51.17549 | -42.68893 | 33308 ft | 534 kts | 83° |
| 2026-05-08 03:36 | 51.18266 | -42.57112 | 33309 ft | 534 kts | 84° |
| 2026-05-08 03:36 | 51.18970 | -42.45327 | 33301 ft | 534 kts | 83° |
| 2026-05-08 03:37 | 51.19659 | -42.33599 | 33310 ft | 536 kts | 84° |
| 2026-05-08 03:37 | 51.20342 | -42.21777 | 33313 ft | 536 kts | 84° |
| 2026-05-08 03:38 | 51.21014 | -42.09939 | 33316 ft | 536 kts | 84° |
| 2026-05-08 03:38 | 51.21674 | -41.98095 | 33319 ft | 536 kts | 84° |
| 2026-05-08 03:39 | 51.22321 | -41.86262 | 33325 ft | 536 kts | 84° |
| 2026-05-08 03:39 | 51.22956 | -41.74419 | 33319 ft | 536 kts | 84° |
| 2026-05-08 03:40 | 51.23579 | -41.62569 | 33330 ft | 536 kts | 84° |
| 2026-05-08 03:40 | 51.24190 | -41.50713 | 33329 ft | 537 kts | 84° |
| 2026-05-08 03:41 | 51.24791 | -41.38842 | 33320 ft | 537 kts | 84° |
| 2026-05-08 03:41 | 51.25380 | -41.26963 | 33324 ft | 537 kts | 84° |
| 2026-05-08 03:42 | 51.25957 | -41.15076 | 33323 ft | 537 kts | 84° |
| 2026-05-08 03:42 | 51.26521 | -41.03200 | 33337 ft | 537 kts | 84° |
| 2026-05-08 03:43 | 51.27073 | -40.91295 | 33330 ft | 537 kts | 84° |
| 2026-05-08 03:43 | 51.27615 | -40.79391 | 33330 ft | 538 kts | 84° |
| 2026-05-08 03:44 | 51.28144 | -40.67480 | 33334 ft | 538 kts | 84° |
| 2026-05-08 03:44 | 51.28662 | -40.55566 | 33334 ft | 538 kts | 84° |
| 2026-05-08 03:45 | 51.29166 | -40.43648 | 33349 ft | 538 kts | 84° |
| 2026-05-08 03:45 | 51.29658 | -40.31747 | 33333 ft | 537 kts | 84° |
| 2026-05-08 03:46 | 51.30139 | -40.19841 | 33336 ft | 537 kts | 84° |
| 2026-05-08 03:46 | 51.30607 | -40.07936 | 33336 ft | 537 kts | 84° |
| 2026-05-08 03:47 | 51.31059 | -39.96108 | 33340 ft | 537 kts | 84° |
| 2026-05-08 03:47 | 51.31503 | -39.84192 | 33356 ft | 537 kts | 84° |
| 2026-05-08 03:48 | 51.31934 | -39.72272 | 33342 ft | 537 kts | 84° |
| 2026-05-08 03:48 | 51.32355 | -39.60348 | 33338 ft | 537 kts | 84° |
| 2026-05-08 03:49 | 51.32763 | -39.48424 | 33352 ft | 537 kts | 84° |
| 2026-05-08 03:49 | 51.33159 | -39.36502 | 33347 ft | 537 kts | 84° |
| 2026-05-08 03:50 | 51.33543 | -39.24567 | 33347 ft | 537 kts | 84° |
| 2026-05-08 03:50 | 51.33914 | -39.12619 | 33348 ft | 538 kts | 84° |
| 2026-05-08 03:51 | 51.34275 | -39.00651 | 33346 ft | 539 kts | 84° |
| 2026-05-08 03:51 | 51.34624 | -38.88676 | 33346 ft | 539 kts | 84° |
| 2026-05-08 03:52 | 51.34958 | -38.76783 | 33349 ft | 539 kts | 84° |
| 2026-05-08 03:52 | 51.35283 | -38.64727 | 33350 ft | 539 kts | 84° |
| 2026-05-08 03:53 | 51.35593 | -38.52844 | 33350 ft | 538 kts | 84° |
| 2026-05-08 03:53 | 51.35892 | -38.40881 | 33354 ft | 538 kts | 84° |
| 2026-05-08 03:54 | 51.36178 | -38.28904 | 33356 ft | 538 kts | 84° |
| 2026-05-08 03:54 | 51.36453 | -38.16947 | 33356 ft | 538 kts | 84° |
| 2026-05-08 03:55 | 51.36715 | -38.04991 | 33356 ft | 536 kts | 84° |
| 2026-05-08 03:55 | 51.36963 | -37.93102 | 33358 ft | 533 kts | 84° |
| 2026-05-08 03:56 | 51.37201 | -37.81240 | 33360 ft | 533 kts | 84° |
| 2026-05-08 03:56 | 51.37426 | -37.69375 | 33357 ft | 533 kts | 84° |
| 2026-05-08 03:57 | 51.37639 | -37.57511 | 33360 ft | 533 kts | 84° |
| 2026-05-08 03:57 | 51.37838 | -37.45657 | 33360 ft | 532 kts | 83° |
| 2026-05-08 03:58 | 51.38025 | -37.33845 | 33361 ft | 530 kts | 83° |
| 2026-05-08 03:58 | 51.38201 | -37.22064 | 33360 ft | 530 kts | 84° |
| 2026-05-08 03:59 | 51.38365 | -37.10256 | 33363 ft | 530 kts | 84° |
| 2026-05-08 03:59 | 51.38517 | -36.98459 | 33360 ft | 530 kts | 84° |
| 2026-05-08 04:00 | 51.38656 | -36.86666 | 33368 ft | 530 kts | 83° |
| 2026-05-08 04:00 | 51.38784 | -36.74857 | 33368 ft | 530 kts | 84° |
| 2026-05-08 04:01 | 51.38899 | -36.63059 | 33369 ft | 530 kts | 83° |
| 2026-05-08 04:01 | 51.39003 | -36.51267 | 33368 ft | 530 kts | 83° |
| 2026-05-08 04:02 | 51.39097 | -36.39466 | 33368 ft | 530 kts | 83° |
| 2026-05-08 04:02 | 51.39177 | -36.27676 | 33368 ft | 530 kts | 84° |
| 2026-05-08 04:03 | 51.39246 | -36.15871 | 33368 ft | 530 kts | 84° |
| 2026-05-08 04:03 | 51.39319 | -36.00156 | 33368 ft | 530 kts | 84° |
| 2026-05-08 04:04 | 51.39360 | -35.88363 | 33369 ft | 530 kts | 84° |
| 2026-05-08 04:04 | 51.39389 | -35.76558 | 33406 ft | 530 kts | 83° |
| 2026-05-08 04:05 | 51.39405 | -35.64775 | 33363 ft | 530 kts | 83° |
| 2026-05-08 04:05 | 51.39412 | -35.52977 | 33370 ft | 530 kts | 83° |
| 2026-05-08 04:06 | 51.39407 | -35.41178 | 33364 ft | 530 kts | 83° |
| 2026-05-08 04:06 | 51.39389 | -35.29381 | 33367 ft | 530 kts | 83° |
| 2026-05-08 04:07 | 51.39359 | -35.17580 | 33406 ft | 530 kts | 83° |
| 2026-05-08 04:07 | 51.39317 | -35.05787 | 33374 ft | 529 kts | 83° |
| 2026-05-08 04:08 | 51.39262 | -34.94110 | 33371 ft | 527 kts | 83° |
| 2026-05-08 04:08 | 51.39198 | -34.82379 | 33371 ft | 527 kts | 83° |
| 2026-05-08 04:09 | 51.39122 | -34.70637 | 33372 ft | 527 kts | 83° |
| 2026-05-08 04:09 | 51.39034 | -34.58888 | 33396 ft | 528 kts | 83° |
| 2026-05-08 04:10 | 51.38933 | -34.47149 | 33374 ft | 527 kts | 83° |
| 2026-05-08 04:10 | 51.38821 | -34.35422 | 33371 ft | 527 kts | 83° |
| 2026-05-08 04:11 | 51.38698 | -34.23694 | 33374 ft | 527 kts | 83° |
| 2026-05-08 04:11 | 51.38562 | -34.11973 | 33372 ft | 527 kts | 83° |
| 2026-05-08 04:12 | 51.38416 | -34.00247 | 33374 ft | 527 kts | 83° |
| 2026-05-08 04:12 | 51.38257 | -33.88539 | 33370 ft | 526 kts | 83° |
| 2026-05-08 04:13 | 51.38087 | -33.76816 | 33368 ft | 527 kts | 83° |
| 2026-05-08 04:13 | 51.37905 | -33.65093 | 33368 ft | 527 kts | 83° |
| 2026-05-08 04:14 | 51.37711 | -33.53378 | 33368 ft | 527 kts | 84° |
| 2026-05-08 04:14 | 51.37506 | -33.41650 | 33375 ft | 527 kts | 84° |
| 2026-05-08 04:15 | 51.37287 | -33.29948 | 33366 ft | 526 kts | 83° |
| 2026-05-08 04:15 | 51.37060 | -33.18248 | 33365 ft | 526 kts | 83° |
| 2026-05-08 04:16 | 51.36821 | -33.06556 | 33366 ft | 526 kts | 84° |
| 2026-05-08 04:16 | 51.36569 | -32.94853 | 33361 ft | 526 kts | 84° |
| 2026-05-08 04:17 | 51.36306 | -32.83153 | 33362 ft | 526 kts | 84° |
| 2026-05-08 04:17 | 51.36030 | -32.71459 | 33362 ft | 526 kts | 84° |
| 2026-05-08 04:18 | 51.35744 | -32.59763 | 33363 ft | 526 kts | 84° |
| 2026-05-08 04:18 | 51.35446 | -32.48074 | 33363 ft | 526 kts | 84° |
| 2026-05-08 04:19 | 51.35136 | -32.36374 | 33357 ft | 526 kts | 84° |
| 2026-05-08 04:19 | 51.34815 | -32.24686 | 33357 ft | 526 kts | 84° |
| 2026-05-08 04:20 | 51.34481 | -32.12999 | 33357 ft | 525 kts | 84° |
| 2026-05-08 04:20 | 51.34136 | -32.01342 | 33357 ft | 525 kts | 84° |
| 2026-05-08 04:21 | 51.33781 | -31.89689 | 33355 ft | 525 kts | 84° |
| 2026-05-08 04:21 | 51.33414 | -31.78024 | 33363 ft | 525 kts | 84° |
| 2026-05-08 04:22 | 51.33035 | -31.66369 | 33351 ft | 525 kts | 84° |
| 2026-05-08 04:22 | 51.32644 | -31.54736 | 33352 ft | 523 kts | 84° |
| 2026-05-08 04:23 | 51.32244 | -31.43129 | 33347 ft | 523 kts | 85° |
| 2026-05-08 04:23 | 51.31836 | -31.31605 | 33342 ft | 523 kts | 85° |
| 2026-05-08 04:24 | 51.31411 | -31.19929 | 33345 ft | 523 kts | 85° |
| 2026-05-08 04:24 | 51.30976 | -31.08321 | 33345 ft | 523 kts | 85° |
| 2026-05-08 04:25 | 51.30532 | -30.96811 | 33349 ft | 522 kts | 84° |
| 2026-05-08 04:25 | 51.30075 | -30.85230 | 33334 ft | 523 kts | 85° |
| 2026-05-08 04:26 | 51.29608 | -30.73640 | 33334 ft | 523 kts | 85° |
| 2026-05-08 04:26 | 51.29128 | -30.62056 | 33335 ft | 523 kts | 85° |
| 2026-05-08 04:27 | 51.28636 | -30.50471 | 33332 ft | 523 kts | 85° |
| 2026-05-08 04:27 | 51.28133 | -30.38880 | 33326 ft | 523 kts | 85° |
| 2026-05-08 04:28 | 51.27618 | -30.27298 | 33323 ft | 523 kts | 85° |
| 2026-05-08 04:28 | 51.27092 | -30.15710 | 33328 ft | 523 kts | 85° |
| 2026-05-08 04:29 | 51.26553 | -30.04112 | 33316 ft | 524 kts | 85° |
| 2026-05-08 04:29 | 51.26004 | -29.92524 | 33323 ft | 524 kts | 85° |
| 2026-05-08 04:30 | 51.25441 | -29.80943 | 33314 ft | 520 kts | 86° |
| 2026-05-08 04:30 | 51.24871 | -29.69458 | 33312 ft | 519 kts | 86° |
| 2026-05-08 04:31 | 51.24295 | -29.57988 | 33309 ft | 518 kts | 86° |
| 2026-05-08 04:31 | 51.23707 | -29.46520 | 33307 ft | 518 kts | 86° |
| 2026-05-08 04:32 | 51.23107 | -29.35057 | 33314 ft | 519 kts | 86° |
| 2026-05-08 04:32 | 51.22495 | -29.23589 | 33313 ft | 519 kts | 86° |
| 2026-05-08 04:33 | 51.21871 | -29.12119 | 33294 ft | 519 kts | 86° |
| 2026-05-08 04:33 | 51.21240 | -29.00723 | 33294 ft | 519 kts | 86° |
| 2026-05-08 04:34 | 51.20594 | -28.89259 | 33291 ft | 519 kts | 86° |
| 2026-05-08 04:34 | 51.19937 | -28.77796 | 33293 ft | 519 kts | 86° |
| 2026-05-08 04:35 | 51.19268 | -28.66329 | 33284 ft | 520 kts | 86° |
| 2026-05-08 04:35 | 51.18588 | -28.54848 | 33284 ft | 521 kts | 86° |
| 2026-05-08 04:36 | 51.17894 | -28.43347 | 33276 ft | 522 kts | 86° |
| 2026-05-08 04:36 | 51.17188 | -28.31845 | 33276 ft | 522 kts | 86° |
| 2026-05-08 04:37 | 51.16471 | -28.20339 | 33271 ft | 522 kts | 86° |
| 2026-05-08 04:37 | 51.15741 | -28.08830 | 33271 ft | 521 kts | 86° |
| 2026-05-08 04:38 | 51.15001 | -27.97351 | 33265 ft | 521 kts | 86° |
| 2026-05-08 04:38 | 51.14252 | -27.85877 | 33263 ft | 521 kts | 86° |
| 2026-05-08 04:39 | 51.13492 | -27.74407 | 33257 ft | 521 kts | 86° |
| 2026-05-08 04:39 | 51.12720 | -27.62933 | 33258 ft | 521 kts | 86° |
| 2026-05-08 04:40 | 51.11935 | -27.51452 | 33251 ft | 521 kts | 87° |
| 2026-05-08 04:40 | 51.11140 | -27.40022 | 33251 ft | 519 kts | 87° |
| 2026-05-08 04:41 | 51.10338 | -27.28603 | 33249 ft | 519 kts | 87° |
| 2026-05-08 04:41 | 51.09525 | -27.17195 | 33240 ft | 519 kts | 87° |
| 2026-05-08 04:42 | 51.08700 | -27.05776 | 33241 ft | 519 kts | 87° |
| 2026-05-08 04:42 | 51.07865 | -26.94374 | 33237 ft | 518 kts | 89° |
| 2026-05-08 04:43 | 51.07021 | -26.83028 | 33232 ft | 516 kts | 89° |
| 2026-05-08 04:43 | 51.06168 | -26.71701 | 33232 ft | 516 kts | 89° |
| 2026-05-08 04:44 | 51.05310 | -26.60443 | 33221 ft | 516 kts | 89° |
| 2026-05-08 04:44 | 51.04435 | -26.49125 | 33221 ft | 516 kts | 89° |
| 2026-05-08 04:45 | 51.03550 | -26.37812 | 33219 ft | 515 kts | 90° |
| 2026-05-08 04:45 | 51.02655 | -26.26541 | 33214 ft | 514 kts | 90° |
| 2026-05-08 04:46 | 51.01752 | -26.15291 | 33211 ft | 513 kts | 91° |
| 2026-05-08 04:46 | 51.00840 | -26.04050 | 33211 ft | 513 kts | 91° |
| 2026-05-08 04:47 | 50.99916 | -25.92816 | 33203 ft | 513 kts | 91° |
| 2026-05-08 04:47 | 50.98983 | -25.81585 | 33209 ft | 513 kts | 92° |
| 2026-05-08 04:48 | 50.98039 | -25.70383 | 33197 ft | 512 kts | 92° |
| 2026-05-08 04:48 | 50.97086 | -25.59207 | 33194 ft | 512 kts | 92° |
| 2026-05-08 04:49 | 50.96120 | -25.48012 | 33192 ft | 512 kts | 92° |
| 2026-05-08 04:49 | 50.95145 | -25.36830 | 33193 ft | 512 kts | 92° |
| 2026-05-08 04:50 | 50.94162 | -25.25660 | 33189 ft | 512 kts | 94° |
| 2026-05-08 04:50 | 50.93165 | -25.14494 | 33181 ft | 511 kts | 94° |
| 2026-05-08 04:51 | 50.92164 | -25.03402 | 33179 ft | 512 kts | 94° |
| 2026-05-08 04:51 | 50.91147 | -24.92244 | 33178 ft | 512 kts | 94° |
| 2026-05-08 04:52 | 50.90120 | -24.81097 | 33175 ft | 512 kts | 94° |
| 2026-05-08 04:52 | 50.89250 | -24.71754 | 33176 ft | 512 kts | 94° |
| 2026-05-08 04:53 | 50.88202 | -24.60604 | 33165 ft | 512 kts | 94° |
| 2026-05-08 04:53 | 50.87144 | -24.49464 | 33165 ft | 512 kts | 94° |
| 2026-05-08 04:54 | 50.86075 | -24.38328 | 33165 ft | 512 kts | 94° |
| 2026-05-08 04:54 | 50.85003 | -24.27269 | 33159 ft | 512 kts | 94° |
| 2026-05-08 04:55 | 50.83913 | -24.16142 | 33183 ft | 512 kts | 95° |
| 2026-05-08 04:55 | 50.82815 | -24.05027 | 33156 ft | 512 kts | 95° |
| 2026-05-08 04:56 | 50.81703 | -23.93909 | 33159 ft | 512 kts | 95° |
| 2026-05-08 04:56 | 50.80580 | -23.82796 | 33154 ft | 512 kts | 95° |
| 2026-05-08 04:57 | 50.79447 | -23.71681 | 33144 ft | 512 kts | 96° |
| 2026-05-08 04:57 | 50.78304 | -23.60576 | 33131 ft | 512 kts | 96° |
| 2026-05-08 04:58 | 50.77150 | -23.49469 | 33131 ft | 512 kts | 96° |
| 2026-05-08 04:58 | 50.75985 | -23.38374 | 33129 ft | 513 kts | 96° |
| 2026-05-08 04:59 | 50.74808 | -23.27271 | 33118 ft | 512 kts | 96° |
| 2026-05-08 04:59 | 50.73621 | -23.16174 | 33123 ft | 512 kts | 96° |
| 2026-05-08 05:00 | 50.72423 | -23.05079 | 33112 ft | 513 kts | 96° |
| 2026-05-08 05:00 | 50.71216 | -22.93988 | 33109 ft | 514 kts | 97° |
| 2026-05-08 05:01 | 50.69997 | -22.82873 | 33112 ft | 514 kts | 97° |
| 2026-05-08 05:01 | 50.68762 | -22.71751 | 33095 ft | 515 kts | 97° |
| 2026-05-08 05:02 | 50.67515 | -22.60642 | 33101 ft | 515 kts | 97° |
| 2026-05-08 05:02 | 50.66261 | -22.49545 | 33089 ft | 514 kts | 97° |
| 2026-05-08 05:03 | 50.64997 | -22.38421 | 33076 ft | 515 kts | 97° |
| 2026-05-08 05:03 | 50.63727 | -22.27367 | 33078 ft | 517 kts | 99° |
| 2026-05-08 05:04 | 50.62433 | -22.16240 | 33068 ft | 517 kts | 99° |
| 2026-05-08 05:04 | 50.61132 | -22.05120 | 33071 ft | 515 kts | 99° |
| 2026-05-08 05:05 | 50.59818 | -21.94002 | 33066 ft | 517 kts | 99° |
| 2026-05-08 05:05 | 50.58494 | -21.82889 | 33053 ft | 518 kts | 99° |
| 2026-05-08 05:06 | 50.57160 | -21.71787 | 33055 ft | 515 kts | 100° |
| 2026-05-08 05:06 | 50.55821 | -21.60703 | 33048 ft | 515 kts | 99° |
| 2026-05-08 05:07 | 50.54467 | -21.49625 | 33041 ft | 517 kts | 100° |
| 2026-05-08 05:07 | 50.53102 | -21.38552 | 33025 ft | 516 kts | 100° |
| 2026-05-08 05:08 | 50.51731 | -21.27487 | 33039 ft | 514 kts | 101° |
| 2026-05-08 05:08 | 50.50350 | -21.16461 | 33027 ft | 515 kts | 101° |
| 2026-05-08 05:09 | 50.48958 | -21.05437 | 33028 ft | 516 kts | 102° |
| 2026-05-08 05:09 | 50.47554 | -20.94406 | 33025 ft | 514 kts | 102° |
| 2026-05-08 05:10 | 50.45430 | -20.77882 | 33007 ft | 514 kts | 103° |
| 2026-05-08 05:11 | 50.44009 | -20.66934 | 33000 ft | 515 kts | 103° |
| 2026-05-08 05:11 | 50.42573 | -20.55925 | 32983 ft | 516 kts | 104° |
| 2026-05-08 05:12 | 50.41122 | -20.44929 | 32983 ft | 515 kts | 104° |
| 2026-05-08 05:12 | 50.39659 | -20.33942 | 32978 ft | 514 kts | 104° |
| 2026-05-08 05:13 | 50.38194 | -20.22976 | 32967 ft | 515 kts | 105° |
| 2026-05-08 05:13 | 50.36718 | -20.12026 | 32955 ft | 514 kts | 105° |
| 2026-05-08 05:14 | 50.35226 | -20.01061 | 32959 ft | 514 kts | 105° |
| 2026-05-08 05:14 | 50.33724 | -19.90103 | 32940 ft | 515 kts | 104° |
| 2026-05-08 05:15 | 50.32219 | -19.79170 | 32932 ft | 513 kts | 106° |
| 2026-05-08 05:15 | 50.30709 | -19.68294 | 32920 ft | 510 kts | 106° |
| 2026-05-08 05:16 | 50.29196 | -19.57485 | 32924 ft | 508 kts | 106° |
| 2026-05-08 05:16 | 50.27673 | -19.46694 | 32933 ft | 508 kts | 106° |
| 2026-05-08 05:17 | 50.26141 | -19.35909 | 32914 ft | 508 kts | 106° |
| 2026-05-08 05:17 | 50.24600 | -19.25135 | 32914 ft | 508 kts | 106° |
| 2026-05-08 05:18 | 50.23048 | -19.14366 | 32911 ft | 508 kts | 106° |
| 2026-05-08 05:18 | 50.21488 | -19.03610 | 32905 ft | 508 kts | 107° |
| 2026-05-08 05:19 | 50.19919 | -18.92874 | 32907 ft | 507 kts | 107° |
| 2026-05-08 05:19 | 50.18342 | -18.82152 | 32905 ft | 507 kts | 107° |
| 2026-05-08 05:20 | 50.16755 | -18.71438 | 32899 ft | 507 kts | 107° |
| 2026-05-08 05:20 | 50.15160 | -18.60740 | 32904 ft | 507 kts | 108° |
| 2026-05-08 05:21 | 50.13550 | -18.50027 | 32905 ft | 507 kts | 108° |
| 2026-05-08 05:21 | 50.11931 | -18.39328 | 32909 ft | 507 kts | 108° |
| 2026-05-08 05:22 | 50.10304 | -18.28635 | 32906 ft | 507 kts | 108° |
| 2026-05-08 05:22 | 50.08666 | -18.17947 | 32911 ft | 507 kts | 108° |
| 2026-05-08 05:23 | 50.07030 | -18.07343 | 32905 ft | 507 kts | 109° |
| 2026-05-08 05:23 | 50.05373 | -17.96674 | 32918 ft | 507 kts | 109° |
| 2026-05-08 05:24 | 50.03707 | -17.86015 | 32910 ft | 507 kts | 109° |
| 2026-05-08 05:24 | 50.02021 | -17.75295 | 32913 ft | 507 kts | 109° |
| 2026-05-08 05:25 | 50.00346 | -17.64716 | 32923 ft | 507 kts | 109° |
| 2026-05-08 05:25 | 49.98654 | -17.54095 | 32900 ft | 505 kts | 109° |
| 2026-05-08 05:26 | 49.96963 | -17.43541 | 32920 ft | 502 kts | 109° |
| 2026-05-08 05:26 | 49.95266 | -17.33037 | 32925 ft | 501 kts | 110° |
| 2026-05-08 05:27 | 49.93560 | -17.22543 | 32925 ft | 501 kts | 110° |
| 2026-05-08 05:27 | 49.91847 | -17.12061 | 32925 ft | 501 kts | 110° |
| 2026-05-08 05:28 | 49.90124 | -17.01585 | 32926 ft | 501 kts | 110° |
| 2026-05-08 05:28 | 49.88392 | -16.91115 | 32930 ft | 501 kts | 110° |
| 2026-05-08 05:29 | 49.86652 | -16.80667 | 32930 ft | 501 kts | 110° |
| 2026-05-08 05:29 | 49.84903 | -16.70227 | 32931 ft | 500 kts | 110° |
| 2026-05-08 05:30 | 49.83144 | -16.59792 | 32930 ft | 500 kts | 110° |
| 2026-05-08 05:30 | 49.81378 | -16.49374 | 32919 ft | 500 kts | 110° |
| 2026-05-08 05:31 | 49.79600 | -16.38955 | 32936 ft | 500 kts | 110° |
| 2026-05-08 05:31 | 49.77815 | -16.28548 | 32938 ft | 500 kts | 110° |
| 2026-05-08 05:32 | 49.76021 | -16.18154 | 32941 ft | 500 kts | 111° |
| 2026-05-08 05:32 | 49.74217 | -16.07768 | 32935 ft | 500 kts | 111° |
| 2026-05-08 05:33 | 49.72408 | -15.97409 | 32929 ft | 499 kts | 111° |
| 2026-05-08 05:33 | 49.70591 | -15.87064 | 32944 ft | 499 kts | 111° |
| 2026-05-08 05:34 | 49.68763 | -15.76724 | 32942 ft | 499 kts | 111° |
| 2026-05-08 05:34 | 49.66940 | -15.66467 | 32941 ft | 499 kts | 111° |
| 2026-05-08 05:35 | 49.65095 | -15.56144 | 32943 ft | 499 kts | 111° |
| 2026-05-08 05:35 | 49.63243 | -15.45838 | 32932 ft | 499 kts | 111° |
| 2026-05-08 05:36 | 49.61378 | -15.35528 | 32930 ft | 499 kts | 111° |
| 2026-05-08 05:36 | 49.59506 | -15.25229 | 32945 ft | 498 kts | 111° |
| 2026-05-08 05:37 | 49.57629 | -15.14961 | 32946 ft | 498 kts | 111° |
| 2026-05-08 05:37 | 49.55743 | -15.04707 | 32946 ft | 498 kts | 111° |
| 2026-05-08 05:38 | 49.53846 | -14.94447 | 32935 ft | 498 kts | 112° |
| 2026-05-08 05:38 | 49.51941 | -14.84201 | 32952 ft | 498 kts | 112° |
| 2026-05-08 05:39 | 49.50024 | -14.73952 | 32950 ft | 498 kts | 112° |
| 2026-05-08 05:39 | 49.48100 | -14.63713 | 32935 ft | 498 kts | 112° |
| 2026-05-08 05:40 | 49.46172 | -14.53508 | 32947 ft | 496 kts | 112° |
| 2026-05-08 05:40 | 49.44564 | -14.45043 | 32964 ft | 496 kts | 112° |
| 2026-05-08 05:41 | 49.42619 | -14.34860 | 32950 ft | 497 kts | 112° |
| 2026-05-08 05:41 | 49.40662 | -14.24668 | 32953 ft | 498 kts | 112° |
| 2026-05-08 05:42 | 49.38696 | -14.14478 | 32955 ft | 498 kts | 112° |
| 2026-05-08 05:42 | 49.36723 | -14.04303 | 32949 ft | 498 kts | 112° |
| 2026-05-08 05:43 | 49.34739 | -13.94130 | 32938 ft | 498 kts | 112° |
| 2026-05-08 05:43 | 49.32748 | -13.83975 | 32955 ft | 497 kts | 112° |
| 2026-05-08 05:44 | 49.30750 | -13.73834 | 32955 ft | 497 kts | 112° |
| 2026-05-08 05:44 | 49.28743 | -13.63703 | 32955 ft | 497 kts | 112° |
| 2026-05-08 05:45 | 49.26728 | -13.53585 | 32955 ft | 497 kts | 112° |
| 2026-05-08 05:45 | 49.24704 | -13.43476 | 32952 ft | 497 kts | 112° |
| 2026-05-08 05:46 | 49.22670 | -13.33371 | 32959 ft | 498 kts | 113° |
| 2026-05-08 05:46 | 49.20622 | -13.23248 | 32945 ft | 498 kts | 113° |
| 2026-05-08 05:47 | 49.18570 | -13.13148 | 32958 ft | 497 kts | 113° |
| 2026-05-08 05:47 | 49.16510 | -13.03066 | 32958 ft | 497 kts | 113° |
| 2026-05-08 05:48 | 49.14442 | -12.92997 | 32957 ft | 497 kts | 113° |
| 2026-05-08 05:48 | 49.12362 | -12.82928 | 32958 ft | 498 kts | 113° |
| 2026-05-08 05:49 | 49.10272 | -12.72854 | 32960 ft | 498 kts | 113° |
| 2026-05-08 05:49 | 49.08186 | -12.62848 | 32960 ft | 498 kts | 113° |
| 2026-05-08 05:50 | 49.06079 | -12.52793 | 32939 ft | 498 kts | 114° |
| 2026-05-08 05:50 | 49.03961 | -12.42737 | 32958 ft | 499 kts | 114° |
| 2026-05-08 05:51 | 49.01829 | -12.32671 | 32958 ft | 500 kts | 114° |
| 2026-05-08 05:51 | 48.99686 | -12.22595 | 32959 ft | 500 kts | 114° |
| 2026-05-08 05:52 | 48.97534 | -12.12526 | 32956 ft | 500 kts | 114° |
| 2026-05-08 05:52 | 48.95374 | -12.02471 | 32957 ft | 500 kts | 114° |
| 2026-05-08 05:53 | 48.93207 | -11.92428 | 32962 ft | 500 kts | 114° |
| 2026-05-08 05:53 | 48.91026 | -11.82381 | 32951 ft | 501 kts | 114° |
| 2026-05-08 05:54 | 48.88833 | -11.72325 | 32958 ft | 501 kts | 114° |
| 2026-05-08 05:54 | 48.86633 | -11.62277 | 32957 ft | 501 kts | 114° |
| 2026-05-08 05:55 | 48.84424 | -11.52240 | 32953 ft | 501 kts | 114° |
| 2026-05-08 05:55 | 48.82206 | -11.42211 | 32937 ft | 501 kts | 114° |
| 2026-05-08 05:56 | 48.79974 | -11.32176 | 32956 ft | 503 kts | 114° |
| 2026-05-08 05:56 | 48.77730 | -11.22126 | 32954 ft | 503 kts | 114° |
| 2026-05-08 05:57 | 48.75476 | -11.12078 | 32960 ft | 503 kts | 114° |
| 2026-05-08 05:57 | 48.73214 | -11.02041 | 32939 ft | 504 kts | 114° |
| 2026-05-08 05:58 | 48.70942 | -10.92013 | 32944 ft | 504 kts | 114° |
| 2026-05-08 05:58 | 48.68653 | -10.81958 | 32958 ft | 506 kts | 114° |
| 2026-05-08 05:59 | 48.66354 | -10.71902 | 32952 ft | 506 kts | 114° |
| 2026-05-08 05:59 | 48.64045 | -10.61848 | 32958 ft | 506 kts | 114° |
| 2026-05-08 06:00 | 48.61728 | -10.51809 | 32953 ft | 506 kts | 114° |
| 2026-05-08 06:00 | 48.59402 | -10.41782 | 32949 ft | 506 kts | 114° |
| 2026-05-08 06:01 | 48.57063 | -10.31747 | 32954 ft | 507 kts | 114° |
| 2026-05-08 06:01 | 48.54734 | -10.21792 | 32953 ft | 506 kts | 114° |
| 2026-05-08 06:02 | 48.52380 | -10.11782 | 32952 ft | 506 kts | 114° |
| 2026-05-08 06:02 | 48.50017 | -10.01779 | 32954 ft | 506 kts | 115° |
| 2026-05-08 06:03 | 48.47644 | -9.91780 | 32949 ft | 507 kts | 114° |
| 2026-05-08 06:03 | 48.45256 | -9.81766 | 32949 ft | 508 kts | 115° |
| 2026-05-08 06:04 | 48.42858 | -9.71751 | 32950 ft | 508 kts | 115° |
| 2026-05-08 06:04 | 48.40452 | -9.61751 | 32949 ft | 508 kts | 115° |
| 2026-05-08 06:05 | 48.38036 | -9.51756 | 32951 ft | 508 kts | 115° |
| 2026-05-08 06:05 | 48.35612 | -9.41772 | 32954 ft | 509 kts | 115° |
| 2026-05-08 06:06 | 48.33170 | -9.31761 | 32949 ft | 510 kts | 115° |
| 2026-05-08 06:06 | 48.30723 | -9.21772 | 32951 ft | 510 kts | 115° |
| 2026-05-08 06:07 | 48.28265 | -9.11782 | 32944 ft | 510 kts | 115° |
| 2026-05-08 06:07 | 48.25801 | -9.01812 | 32944 ft | 509 kts | 115° |
| 2026-05-08 06:08 | 48.23328 | -8.91852 | 32963 ft | 509 kts | 115° |
| 2026-05-08 06:08 | 48.20864 | -8.81973 | 32961 ft | 509 kts | 115° |
| 2026-05-08 06:09 | 48.18377 | -8.72043 | 32959 ft | 509 kts | 115° |
| 2026-05-08 06:09 | 48.15880 | -8.62121 | 32947 ft | 509 kts | 115° |
| 2026-05-08 06:10 | 48.13374 | -8.52205 | 32956 ft | 510 kts | 115° |
| 2026-05-08 06:10 | 48.10855 | -8.42282 | 32950 ft | 510 kts | 115° |
| 2026-05-08 06:11 | 48.08335 | -8.32393 | 32949 ft | 509 kts | 115° |
| 2026-05-08 06:11 | 48.05807 | -8.22515 | 32948 ft | 509 kts | 115° |
| 2026-05-08 06:12 | 48.03268 | -8.12644 | 32949 ft | 509 kts | 115° |
| 2026-05-08 06:12 | 48.00721 | -8.02784 | 32948 ft | 510 kts | 115° |
| 2026-05-08 06:13 | 47.98088 | -7.92948 | 32952 ft | 510 kts | 117° |
| 2026-05-08 06:13 | 47.95250 | -7.83274 | 32937 ft | 509 kts | 118° |
| 2026-05-08 06:14 | 47.92392 | -7.73633 | 32946 ft | 507 kts | 117° |
| 2026-05-08 06:14 | 47.89564 | -7.64004 | 32951 ft | 507 kts | 117° |
| 2026-05-08 06:15 | 47.86737 | -7.54352 | 32955 ft | 510 kts | 117° |
| 2026-05-08 06:15 | 47.83894 | -7.44663 | 32955 ft | 510 kts | 117° |
| 2026-05-08 06:16 | 47.81044 | -7.34993 | 32952 ft | 510 kts | 117° |
| 2026-05-08 06:16 | 47.78205 | -7.25401 | 32948 ft | 510 kts | 117° |
| 2026-05-08 06:17 | 47.73899 | -7.10931 | 32953 ft | 511 kts | 117° |
| 2026-05-08 06:17 | 47.71007 | -7.01259 | 32955 ft | 513 kts | 117° |
| 2026-05-08 06:18 | 47.68107 | -6.91594 | 32955 ft | 513 kts | 117° |
| 2026-05-08 06:18 | 47.65197 | -6.81938 | 32955 ft | 512 kts | 117° |
| 2026-05-08 06:19 | 47.62282 | -6.72302 | 32955 ft | 512 kts | 117° |
| 2026-05-08 06:19 | 47.59352 | -6.62656 | 32946 ft | 514 kts | 117° |
| 2026-05-08 06:20 | 47.56409 | -6.53000 | 32955 ft | 514 kts | 117° |
| 2026-05-08 06:20 | 47.53459 | -6.43362 | 32950 ft | 514 kts | 117° |
| 2026-05-08 06:21 | 47.50502 | -6.33737 | 32955 ft | 514 kts | 117° |
| 2026-05-08 06:21 | 47.47537 | -6.24123 | 32952 ft | 514 kts | 117° |
| 2026-05-08 06:22 | 47.44551 | -6.14484 | 32952 ft | 517 kts | 117° |
| 2026-05-08 06:22 | 47.41549 | -6.04824 | 32952 ft | 517 kts | 117° |
| 2026-05-08 06:23 | 47.38543 | -5.95186 | 32952 ft | 517 kts | 117° |
| 2026-05-08 06:23 | 47.35551 | -5.85630 | 32952 ft | 516 kts | 118° |
| 2026-05-08 06:24 | 47.32528 | -5.76017 | 32954 ft | 518 kts | 117° |
| 2026-05-08 06:24 | 47.29487 | -5.66382 | 32953 ft | 519 kts | 118° |
| 2026-05-08 06:25 | 47.26433 | -5.56740 | 32955 ft | 519 kts | 118° |
| 2026-05-08 06:25 | 47.23375 | -5.47120 | 32948 ft | 518 kts | 118° |
| 2026-05-08 06:26 | 47.20315 | -5.37533 | 32953 ft | 518 kts | 118° |
| 2026-05-08 06:26 | 47.17238 | -5.27930 | 32947 ft | 521 kts | 118° |
| 2026-05-08 06:27 | 47.14140 | -5.18296 | 32951 ft | 522 kts | 118° |
| 2026-05-08 06:27 | 47.11032 | -5.08670 | 32947 ft | 521 kts | 118° |
| 2026-05-08 06:28 | 47.07919 | -4.99061 | 32948 ft | 521 kts | 118° |
| 2026-05-08 06:28 | 47.04812 | -4.89455 | 32948 ft | 521 kts | 117° |
| 2026-05-08 06:29 | 47.01702 | -4.79825 | 32946 ft | 523 kts | 117° |
| 2026-05-08 06:29 | 46.98580 | -4.70192 | 32950 ft | 523 kts | 118° |
| 2026-05-08 06:30 | 46.95978 | -4.62200 | 32949 ft | 523 kts | 118° |
| 2026-05-08 06:30 | 46.92327 | -4.51032 | 32950 ft | 523 kts | 118° |
| 2026-05-08 06:31 | 46.89181 | -4.41448 | 32948 ft | 523 kts | 118° |
| 2026-05-08 06:31 | 46.86539 | -4.33428 | 32945 ft | 522 kts | 118° |
| 2026-05-08 06:32 | 46.83386 | -4.23888 | 32947 ft | 521 kts | 118° |
| 2026-05-08 06:32 | 46.80246 | -4.14425 | 32947 ft | 521 kts | 118° |
| 2026-05-08 06:33 | 46.77059 | -4.04854 | 32945 ft | 521 kts | 118° |
| 2026-05-08 06:33 | 46.73876 | -3.95330 | 32944 ft | 523 kts | 118° |
| 2026-05-08 06:34 | 46.70700 | -3.85861 | 32947 ft | 523 kts | 118° |
| 2026-05-08 06:34 | 46.67497 | -3.76346 | 32947 ft | 523 kts | 118° |
| 2026-05-08 06:35 | 46.64287 | -3.66842 | 32947 ft | 523 kts | 118° |
| 2026-05-08 06:35 | 46.61066 | -3.57345 | 32947 ft | 525 kts | 118° |
| 2026-05-08 06:36 | 46.57820 | -3.47809 | 32944 ft | 526 kts | 118° |
| 2026-05-08 06:36 | 46.54569 | -3.38289 | 32947 ft | 526 kts | 118° |
| 2026-05-08 06:37 | 46.51310 | -3.28781 | 32938 ft | 526 kts | 118° |
| 2026-05-08 06:37 | 46.48046 | -3.19297 | 32948 ft | 525 kts | 118° |
| 2026-05-08 06:38 | 46.44769 | -3.09809 | 32946 ft | 527 kts | 118° |
| 2026-05-08 06:38 | 46.41476 | -3.00305 | 32947 ft | 527 kts | 118° |
| 2026-05-08 06:39 | 46.38177 | -2.90817 | 32947 ft | 527 kts | 118° |
| 2026-05-08 06:39 | 46.34869 | -2.81340 | 32946 ft | 527 kts | 118° |
| 2026-05-08 06:40 | 46.31550 | -2.71862 | 32948 ft | 529 kts | 118° |
| 2026-05-08 06:40 | 46.28237 | -2.62440 | 32949 ft | 529 kts | 118° |
| 2026-05-08 06:41 | 46.24892 | -2.52961 | 32949 ft | 529 kts | 118° |
| 2026-05-08 06:41 | 46.21544 | -2.43505 | 32946 ft | 529 kts | 118° |
| 2026-05-08 06:42 | 46.18182 | -2.34042 | 32952 ft | 530 kts | 118° |
| 2026-05-08 06:42 | 46.14802 | -2.24564 | 32949 ft | 532 kts | 118° |
| 2026-05-08 06:43 | 46.11417 | -2.15101 | 32950 ft | 531 kts | 118° |
| 2026-05-08 06:43 | 46.08029 | -2.05665 | 32952 ft | 530 kts | 118° |
| 2026-05-08 06:44 | 46.04632 | -1.96238 | 32952 ft | 530 kts | 118° |
| 2026-05-08 06:44 | 46.01221 | -1.86806 | 32946 ft | 532 kts | 118° |
| 2026-05-08 06:45 | 45.97796 | -1.77368 | 32944 ft | 532 kts | 118° |
| 2026-05-08 06:45 | 45.94365 | -1.67945 | 32937 ft | 532 kts | 118° |
| 2026-05-08 06:46 | 45.91070 | -1.58443 | 32940 ft | 532 kts | 115° |
| 2026-05-08 06:46 | 45.88043 | -1.48740 | 32939 ft | 534 kts | 114° |
| 2026-05-08 06:47 | 45.85005 | -1.39016 | 32936 ft | 534 kts | 115° |
| 2026-05-08 06:47 | 45.81912 | -1.29337 | 32933 ft | 534 kts | 115° |
| 2026-05-08 06:48 | 45.78791 | -1.19693 | 32933 ft | 534 kts | 115° |
| 2026-05-08 06:48 | 45.75651 | -1.10042 | 32928 ft | 535 kts | 115° |
| 2026-05-08 06:49 | 45.72520 | -1.00444 | 32936 ft | 536 kts | 115° |
| 2026-05-08 06:49 | 45.69363 | -0.90797 | 32938 ft | 536 kts | 115° |
| 2026-05-08 06:50 | 45.66195 | -0.81152 | 32939 ft | 535 kts | 115° |
| 2026-05-08 06:50 | 45.63018 | -0.71518 | 32947 ft | 536 kts | 115° |
| 2026-05-08 06:51 | 45.59831 | -0.61884 | 32955 ft | 537 kts | 115° |
| 2026-05-08 06:51 | 45.56631 | -0.52248 | 32965 ft | 537 kts | 115° |
| 2026-05-08 06:52 | 45.53423 | -0.42627 | 32967 ft | 537 kts | 115° |
| 2026-05-08 06:52 | 45.50211 | -0.33025 | 32949 ft | 537 kts | 115° |
| 2026-05-08 06:53 | 45.46987 | -0.23426 | 32961 ft | 537 kts | 115° |
| 2026-05-08 06:53 | 45.43759 | -0.13844 | 32957 ft | 537 kts | 116° |
| 2026-05-08 06:54 | 45.40521 | -0.04274 | 32941 ft | 537 kts | 116° |
| 2026-05-08 06:54 | 45.37275 | 0.05287 | 32957 ft | 537 kts | 115° |
| 2026-05-08 06:55 | 45.34015 | 0.14857 | 32952 ft | 538 kts | 115° |
| 2026-05-08 06:55 | 45.30744 | 0.24425 | 32953 ft | 538 kts | 116° |
| 2026-05-08 06:56 | 45.27464 | 0.33985 | 32959 ft | 538 kts | 116° |
| 2026-05-08 06:56 | 45.24179 | 0.43523 | 32966 ft | 538 kts | 115° |
| 2026-05-08 06:57 | 45.20883 | 0.53062 | 32973 ft | 538 kts | 115° |
| 2026-05-08 06:57 | 45.17579 | 0.62591 | 32982 ft | 539 kts | 116° |
| 2026-05-08 06:58 | 45.14261 | 0.72122 | 32992 ft | 540 kts | 116° |
| 2026-05-08 06:58 | 45.10930 | 0.81656 | 32999 ft | 540 kts | 115° |
| 2026-05-08 06:59 | 45.07611 | 0.91125 | 32978 ft | 541 kts | 116° |
| 2026-05-08 06:59 | 45.04263 | 1.00643 | 32950 ft | 541 kts | 116° |
| 2026-05-08 07:00 | 45.00904 | 1.10163 | 32978 ft | 541 kts | 116° |
| 2026-05-08 07:00 | 44.97535 | 1.19670 | 32968 ft | 541 kts | 116° |
| 2026-05-08 07:01 | 44.94156 | 1.29174 | 32952 ft | 542 kts | 116° |
| 2026-05-08 07:01 | 44.90770 | 1.38666 | 32949 ft | 542 kts | 116° |
| 2026-05-08 07:02 | 44.86856 | 1.47740 | 32947 ft | 542 kts | 124° |
| 2026-05-08 07:02 | 44.82576 | 1.56480 | 32955 ft | 541 kts | 126° |
| 2026-05-08 07:03 | 44.78252 | 1.65123 | 32955 ft | 539 kts | 126° |
| 2026-05-08 07:03 | 44.73937 | 1.73740 | 32957 ft | 539 kts | 126° |
| 2026-05-08 07:04 | 44.69622 | 1.82357 | 32957 ft | 539 kts | 126° |
| 2026-05-08 07:04 | 44.65309 | 1.90959 | 33288 ft | 537 kts | 126° |
| 2026-05-08 07:05 | 44.63171 | 1.95217 | 33959 ft | 529 kts | 126° |
| 2026-05-08 07:05 | 44.61057 | 1.99420 | 34405 ft | 526 kts | 126° |
| 2026-05-08 07:05 | 44.58946 | 2.03611 | 34680 ft | 526 kts | 126° |
| 2026-05-08 07:05 | 44.56822 | 2.07819 | 34821 ft | 530 kts | 126° |
| 2026-05-08 07:06 | 44.54689 | 2.12037 | 35094 ft | 530 kts | 127° |
| 2026-05-08 07:06 | 44.52564 | 2.16236 | 35444 ft | 528 kts | 127° |
| 2026-05-08 07:06 | 44.50471 | 2.20365 | 35784 ft | 526 kts | 127° |
| 2026-05-08 07:06 | 44.48355 | 2.24534 | 36082 ft | 525 kts | 127° |
| 2026-05-08 07:07 | 44.46245 | 2.28684 | 36355 ft | 524 kts | 127° |
| 2026-05-08 07:07 | 44.44133 | 2.32833 | 36734 ft | 520 kts | 127° |
| 2026-05-08 07:07 | 44.42040 | 2.36940 | 37090 ft | 518 kts | 127° |
| 2026-05-08 07:07 | 44.39945 | 2.41042 | 37299 ft | 518 kts | 127° |
| 2026-05-08 07:08 | 44.35736 | 2.49265 | 37505 ft | 522 kts | 128° |
| 2026-05-08 07:08 | 44.33625 | 2.53381 | 37741 ft | 521 kts | 128° |
| 2026-05-08 07:08 | 44.31517 | 2.57488 | 37982 ft | 520 kts | 128° |